Time;durP1;ratioP1;P1;durP2;ratioP2;P2;SDS_P1;SDS_P2;PMS_P1;PMS_P2;Temp;Humidity;BMP_temperature;BMP_pressure;BME280_temperature;BME280_humidity;BME280_pressure;Samples;Min_cycle;Max_cycle;Signal;HPM_P1;HPM_P2
2024/02/12 00:00:58;;;;;;;6.67;2.93;;;8.90;99.90;;;;;;4897892;29;20214;-79
2024/02/12 00:03:26;;;;;;;6.17;2.67;;;8.90;99.90;;;;;;4897797;29;20236;-78
2024/02/12 00:05:53;;;;;;;3.60;2.00;;;8.90;99.90;;;;;;4897968;29;20555;-78
2024/02/12 00:08:20;;;;;;;5.90;3.00;;;8.90;99.90;;;;;;4897835;29;20301;-78
2024/02/12 00:10:49;;;;;;;8.67;2.70;;;8.90;99.90;;;;;;4897354;29;20206;-78
2024/02/12 00:13:17;;;;;;;6.63;2.30;;;9.00;99.90;;;;;;4897757;29;20651;-78
2024/02/12 00:15:45;;;;;;;6.17;3.07;;;9.00;99.90;;;;;;4897703;29;20741;-78
2024/02/12 00:18:11;;;;;;;5.90;2.60;;;9.00;99.90;;;;;;4897672;29;20210;-79
2024/02/12 00:20:41;;;;;;;6.13;2.77;;;9.00;99.90;;;;;;4897164;29;20207;-78
2024/02/12 00:23:08;;;;;;;4.80;2.07;;;9.00;99.90;;;;;;4897145;29;20234;-80
2024/02/12 00:25:35;;;;;;;5.30;2.63;;;9.00;99.90;;;;;;4897700;29;20684;-78
2024/02/12 00:28:02;;;;;;;5.30;2.70;;;8.80;99.90;;;;;;4898117;29;20298;-78
2024/02/12 00:30:33;;;;;;;6.50;2.80;;;8.90;99.90;;;;;;4897624;29;20214;-79
2024/02/12 00:33:03;;;;;;;6.47;2.93;;;9.00;99.90;;;;;;4898514;29;20234;-79
2024/02/12 00:35:31;;;;;;;8.17;3.17;;;9.00;99.90;;;;;;4901553;29;20599;-78
2024/02/12 00:38:00;;;;;;;4.73;2.80;;;9.10;99.90;;;;;;4901000;29;20727;-80
2024/02/12 00:40:27;;;;;;;7.17;2.40;;;9.10;99.90;;;;;;4901082;29;20211;-80
2024/02/12 00:42:58;;;;;;;6.47;2.80;;;9.20;99.90;;;;;;4901105;29;20261;-79
2024/02/12 00:45:25;;;;;;;10.70;3.10;;;9.10;99.90;;;;;;4901233;29;20215;-79
2024/02/12 00:47:53;;;;;;;7.87;3.50;;;8.90;99.90;;;;;;4900890;29;20717;-79
2024/02/12 00:50:20;;;;;;;8.13;3.87;;;8.90;99.90;;;;;;4901250;29;20238;-79
2024/02/12 00:52:49;;;;;;;8.20;3.33;;;8.90;99.90;;;;;;4901013;29;20230;-79
2024/02/12 00:55:17;;;;;;;8.87;3.10;;;8.90;99.90;;;;;;4901072;29;20214;-79
2024/02/12 00:57:44;;;;;;;6.70;2.97;;;8.90;99.90;;;;;;4901227;29;20329;-79
2024/02/12 01:00:14;;;;;;;6.50;3.20;;;8.80;99.90;;;;;;4901078;29;20211;-79
2024/02/12 01:02:41;;;;;;;9.70;3.73;;;8.90;99.90;;;;;;4900561;29;20709;-79
2024/02/12 01:05:09;;;;;;;6.90;3.07;;;8.80;99.90;;;;;;4900710;29;20289;-79
2024/02/12 01:07:36;;;;;;;9.90;3.27;;;8.70;99.90;;;;;;4900626;29;20210;-78
2024/02/12 01:10:03;;;;;;;10.20;3.30;;;8.60;99.90;;;;;;4900896;29;20301;-79
2024/02/12 01:12:31;;;;;;;7.27;3.30;;;8.60;99.90;;;;;;4900625;29;20313;-78
2024/02/12 01:14:59;;;;;;;6.40;3.53;;;8.50;99.90;;;;;;4900789;29;20302;-78
2024/02/12 01:17:27;;;;;;;5.47;2.90;;;8.50;99.90;;;;;;4900239;29;20244;-78
2024/02/12 01:19:54;;;;;;;7.00;3.30;;;8.60;99.90;;;;;;4900629;29;20210;-78
2024/02/12 01:22:21;;;;;;;11.50;4.03;;;8.60;99.90;;;;;;4900440;29;20282;-79
2024/02/12 01:24:50;;;;;;;6.70;2.97;;;8.60;99.90;;;;;;4900812;29;20218;-79
2024/02/12 01:27:17;;;;;;;6.90;3.10;;;8.60;99.90;;;;;;4900556;29;20301;-79
2024/02/12 01:29:47;;;;;;;9.60;3.60;;;8.70;99.90;;;;;;4900249;29;20212;-78
2024/02/12 01:32:14;;;;;;;9.33;3.37;;;8.60;99.90;;;;;;4899662;29;20224;-78
2024/02/12 01:34:43;;;;;;;7.80;3.37;;;8.60;99.90;;;;;;4900235;29;20210;-78
2024/02/12 01:37:10;;;;;;;8.20;3.70;;;8.60;99.90;;;;;;4900294;29;20277;-78
2024/02/12 01:39:37;;;;;;;10.60;3.43;;;8.40;99.90;;;;;;4900150;29;20233;-79
2024/02/12 01:42:12;;;;;;;7.27;3.20;;;8.40;99.90;;;;;;4900532;29;20297;-79
2024/02/12 01:44:47;;;;;;;7.13;3.47;;;8.40;99.90;;;;;;4898932;29;20209;-79
2024/02/12 01:47:16;;;;;;;9.70;4.20;;;8.40;99.90;;;;;;4899775;29;20539;-78
2024/02/12 01:49:43;;;;;;;7.23;2.87;;;8.40;99.90;;;;;;4900224;29;20211;-78
2024/02/12 01:52:13;;;;;;;6.57;2.90;;;8.40;99.90;;;;;;4899914;29;20764;-78
2024/02/12 01:54:40;;;;;;;8.87;3.90;;;8.40;99.90;;;;;;4899892;29;20267;-78
2024/02/12 01:57:09;;;;;;;6.17;3.03;;;8.40;99.90;;;;;;4899613;29;20254;-79
2024/02/12 01:59:38;;;;;;;6.23;3.30;;;8.50;99.90;;;;;;4899558;29;20658;-79
2024/02/12 02:02:05;;;;;;;6.60;3.20;;;8.50;99.90;;;;;;4899514;29;20211;-78
2024/02/12 02:04:35;;;;;;;6.03;3.40;;;8.50;99.90;;;;;;4899875;29;20231;-79
2024/02/12 02:07:06;;;;;;;8.77;3.13;;;8.50;99.90;;;;;;4899797;29;20211;-78
2024/02/12 02:09:33;;;;;;;7.43;3.03;;;8.50;99.90;;;;;;4899764;29;20253;-79
2024/02/12 02:12:01;;;;;;;7.80;2.93;;;8.60;99.90;;;;;;4899695;29;20626;-78
2024/02/12 02:14:28;;;;;;;6.60;2.97;;;8.70;99.90;;;;;;4899881;29;20702;-78
2024/02/12 02:16:55;;;;;;;10.67;3.40;;;8.70;99.90;;;;;;4899443;29;20332;-79
2024/02/12 02:19:23;;;;;;;6.37;2.97;;;8.70;99.90;;;;;;4899700;29;20272;-78
2024/02/12 02:21:52;;;;;;;7.00;2.87;;;8.60;99.90;;;;;;4899826;29;20278;-79
2024/02/12 02:24:20;;;;;;;8.47;3.70;;;8.60;99.90;;;;;;4899464;29;20578;-78
2024/02/12 02:26:47;;;;;;;8.90;3.50;;;8.60;99.90;;;;;;4899514;29;20557;-79
2024/02/12 02:29:14;;;;;;;8.50;2.87;;;8.60;99.90;;;;;;4899628;29;20228;-78
2024/02/12 02:31:41;;;;;;;10.60;3.07;;;8.60;99.90;;;;;;4898994;29;20684;-79
2024/02/12 02:34:08;;;;;;;8.17;3.33;;;8.60;99.90;;;;;;4899343;29;20254;-79
2024/02/12 02:36:36;;;;;;;6.47;3.13;;;8.70;99.90;;;;;;4898987;29;20723;-79
2024/02/12 02:39:03;;;;;;;8.70;3.43;;;8.70;99.90;;;;;;4899082;29;20300;-78
2024/02/12 02:41:32;;;;;;;8.00;3.47;;;8.70;99.90;;;;;;4899078;29;20684;-79
2024/02/12 02:43:58;;;;;;;7.93;2.90;;;8.70;99.90;;;;;;4899086;29;20237;-78
2024/02/12 02:46:27;;;;;;;5.93;3.20;;;8.80;99.90;;;;;;4898945;29;20221;-79
2024/02/12 02:48:55;;;;;;;5.93;2.83;;;8.80;99.90;;;;;;4898824;29;20206;-79
2024/02/12 02:51:27;;;;;;;9.23;3.30;;;8.80;99.90;;;;;;4899004;29;20761;-79
2024/02/12 02:53:54;;;;;;;8.47;2.90;;;8.70;99.90;;;;;;4898802;29;20234;-79
2024/02/12 02:56:22;;;;;;;9.97;2.87;;;8.70;99.90;;;;;;4898656;29;20241;-78
2024/02/12 02:58:51;;;;;;;4.47;2.87;;;8.70;99.90;;;;;;4898825;29;20214;-79
2024/02/12 03:01:19;;;;;;;10.23;3.00;;;8.70;99.90;;;;;;4898723;29;20210;-79
2024/02/12 03:03:48;;;;;;;6.27;2.83;;;8.70;99.90;;;;;;4898859;29;20273;-79
2024/02/12 03:06:15;;;;;;;9.03;5.30;;;8.80;99.90;;;;;;4898610;29;20210;-79
2024/02/12 03:08:42;;;;;;;6.13;3.27;;;8.80;99.90;;;;;;4898792;29;20221;-79
2024/02/12 03:11:09;;;;;;;6.97;2.93;;;8.80;99.90;;;;;;4898673;29;20231;-78
2024/02/12 03:13:36;;;;;;;8.47;3.27;;;8.70;99.90;;;;;;4899235;29;20326;-78
2024/02/12 03:16:05;;;;;;;7.10;2.73;;;8.70;99.90;;;;;;4898507;29;20289;-79
2024/02/12 03:18:32;;;;;;;7.40;3.10;;;8.70;99.90;;;;;;4898239;29;20237;-79
2024/02/12 03:20:59;;;;;;;7.43;2.93;;;8.50;99.90;;;;;;4898545;29;20301;-79
2024/02/12 03:23:26;;;;;;;6.40;2.60;;;8.50;99.90;;;;;;4898536;29;20765;-78
2024/02/12 03:25:53;;;;;;;4.80;2.33;;;8.50;99.90;;;;;;4898426;29;20217;-78
2024/02/12 03:28:19;;;;;;;8.50;2.70;;;8.60;99.90;;;;;;4898146;29;20214;-79
2024/02/12 03:30:46;;;;;;;7.13;3.03;;;8.60;99.90;;;;;;4900191;29;20242;-78
2024/02/12 03:33:15;;;;;;;6.07;2.70;;;8.50;99.90;;;;;;4904867;29;20285;-78
2024/02/12 03:35:42;;;;;;;7.00;3.33;;;8.50;99.90;;;;;;4903370;29;20641;-79
2024/02/12 03:38:09;;;;;;;7.60;2.77;;;8.60;99.90;;;;;;4897822;29;20597;-78
2024/02/12 03:40:36;;;;;;;5.60;2.57;;;8.60;99.90;;;;;;4898146;29;20700;-79
2024/02/12 03:43:04;;;;;;;7.70;2.73;;;8.60;99.90;;;;;;4897795;29;20234;-78
2024/02/12 03:45:31;;;;;;;5.43;2.43;;;8.60;99.90;;;;;;4897914;29;20274;-78
2024/02/12 03:48:00;;;;;;;5.53;2.33;;;8.60;99.90;;;;;;4897985;29;20226;-79
2024/02/12 04:01:26;;;;;;;7.07;2.10;;;8.60;99.90;;;;;;4897630;29;20302;-78
2024/02/12 04:03:53;;;;;;;3.03;1.53;;;8.60;99.90;;;;;;4897703;29;20234;-79
2024/02/12 04:06:22;;;;;;;7.07;1.60;;;8.60;99.90;;;;;;4897812;29;20292;-78
2024/02/12 04:08:50;;;;;;;3.50;1.80;;;8.40;99.90;;;;;;4899809;29;20210;-78
2024/02/12 04:11:17;;;;;;;3.10;1.57;;;8.40;99.90;;;;;;4901825;29;20312;-79
2024/02/12 04:13:46;;;;;;;2.80;1.53;;;8.30;99.90;;;;;;4901930;29;20321;-78
2024/02/12 04:16:14;;;;;;;4.13;1.70;;;8.40;99.90;;;;;;4901833;29;20264;-79
2024/02/12 04:18:42;;;;;;;4.03;1.17;;;8.40;99.90;;;;;;4901506;29;20269;-79
2024/02/12 04:21:09;;;;;;;2.17;1.40;;;8.50;99.90;;;;;;4901570;29;20242;-78
2024/02/12 04:23:38;;;;;;;4.97;1.63;;;8.50;99.90;;;;;;4901743;29;20230;-79
2024/02/12 04:26:08;;;;;;;2.37;1.67;;;8.50;99.90;;;;;;4901608;29;20221;-78
2024/02/12 04:28:35;;;;;;;3.57;1.67;;;8.50;99.90;;;;;;4901581;29;20213;-79
2024/02/12 04:31:02;;;;;;;2.70;1.37;;;8.40;99.90;;;;;;4901286;29;20203;-79
2024/02/12 04:33:30;;;;;;;3.40;1.80;;;8.50;99.90;;;;;;4900822;29;20241;-79
2024/02/12 04:35:57;;;;;;;4.60;1.50;;;8.40;99.90;;;;;;4901012;29;20253;-79
2024/02/12 04:38:24;;;;;;;8.83;4.00;;;8.30;99.90;;;;;;4901365;29;20789;-79
2024/02/12 04:40:52;;;;;;;3.33;1.87;;;8.30;99.90;;;;;;4901316;29;20214;-78
2024/02/12 04:43:20;;;;;;;2.90;1.63;;;8.40;99.90;;;;;;4901080;29;20238;-78
2024/02/12 04:45:47;;;;;;;4.97;1.63;;;8.30;99.90;;;;;;4901300;29;20210;-78
2024/02/12 04:48:13;;;;;;;3.30;1.90;;;8.30;99.90;;;;;;4901122;29;20213;-78
2024/02/12 04:50:40;;;;;;;4.03;1.70;;;8.20;99.90;;;;;;4901325;29;20217;-79
2024/02/12 04:53:07;;;;;;;5.07;1.87;;;8.30;99.90;;;;;;4900597;29;20293;-78
2024/02/12 04:55:34;;;;;;;5.27;1.67;;;8.30;99.90;;;;;;4900855;29;20658;-78
2024/02/12 04:58:04;;;;;;;5.20;1.70;;;8.30;99.90;;;;;;4900949;29;20238;-79
2024/02/12 05:00:31;;;;;;;4.87;2.07;;;8.20;99.90;;;;;;4900990;29;20218;-79
2024/02/12 05:02:58;;;;;;;6.67;1.70;;;8.30;99.90;;;;;;4900660;29;20234;-78
2024/02/12 05:05:26;;;;;;;5.07;1.93;;;8.30;99.90;;;;;;4901023;29;20211;-78
2024/02/12 05:07:53;;;;;;;7.60;1.90;;;8.30;99.90;;;;;;4900735;29;20697;-78
2024/02/12 05:10:20;;;;;;;3.97;1.43;;;8.30;99.90;;;;;;4900977;29;20630;-78
2024/02/12 05:12:49;;;;;;;7.20;2.30;;;8.30;99.90;;;;;;4900710;29;20232;-79
2024/02/12 05:15:19;;;;;;;3.43;1.80;;;8.20;99.90;;;;;;4900657;29;20217;-78
2024/02/12 05:17:55;;;;;;;6.43;1.87;;;8.20;99.90;;;;;;4900259;29;20238;-78
2024/02/12 05:23:09;;;;;;;5.37;2.13;;;8.10;99.90;;;;;;4900603;29;20237;-79
2024/02/12 05:25:37;;;;;;;3.47;1.40;;;8.10;99.90;;;;;;4900517;29;20293;-79
2024/02/12 05:28:04;;;;;;;4.10;2.13;;;8.10;99.90;;;;;;4900469;29;20221;-78
2024/02/12 05:30:32;;;;;;;4.83;2.10;;;8.20;99.90;;;;;;4900547;29;20297;-78
2024/02/12 05:33:00;;;;;;;6.90;1.73;;;8.30;99.90;;;;;;4900277;29;20234;-78
2024/02/12 05:35:27;;;;;;;5.47;1.67;;;8.30;99.90;;;;;;4900405;29;20214;-79
2024/02/12 05:37:54;;;;;;;6.43;1.60;;;8.40;99.90;;;;;;4900322;29;20246;-79
2024/02/12 05:40:21;;;;;;;12.37;2.40;;;8.50;99.90;;;;;;4900192;29;20305;-78
2024/02/12 05:42:48;;;;;;;7.50;2.40;;;8.50;99.90;;;;;;4899878;29;20346;-79
2024/02/12 05:45:15;;;;;;;6.93;1.60;;;8.50;99.90;;;;;;4900069;29;20210;-77
2024/02/12 05:47:44;;;;;;;3.73;1.50;;;8.50;99.90;;;;;;4899846;29;20297;-78
2024/02/12 05:50:11;;;;;;;2.03;1.40;;;8.50;99.90;;;;;;4900043;29;20215;-78
2024/02/12 05:52:39;;;;;;;4.53;1.20;;;8.60;99.90;;;;;;4899923;29;20317;-78
2024/02/12 05:55:06;;;;;;;9.03;1.60;;;8.60;99.90;;;;;;4899914;29;20242;-78
2024/02/12 05:57:33;;;;;;;2.13;1.00;;;8.50;99.90;;;;;;4899902;29;20245;-79
2024/02/12 06:00:00;;;;;;;5.63;1.30;;;8.50;99.90;;;;;;4899873;29;20297;-78
2024/02/12 06:02:27;;;;;;;5.17;1.50;;;8.50;99.90;;;;;;4899528;29;20309;-78
2024/02/12 06:04:55;;;;;;;4.27;0.90;;;8.40;99.90;;;;;;4899805;29;20246;-78
2024/02/12 06:07:22;;;;;;;4.80;0.77;;;8.40;99.90;;;;;;4899797;29;20215;-79
2024/02/12 06:09:49;;;;;;;3.13;1.13;;;8.30;99.90;;;;;;4899533;29;20399;-78
2024/02/12 06:12:16;;;;;;;1.47;0.93;;;8.10;99.90;;;;;;4899569;29;20215;-78
2024/02/12 06:14:43;;;;;;;5.57;0.90;;;8.10;99.90;;;;;;4899584;29;20301;-79
2024/02/12 06:17:10;;;;;;;6.40;1.40;;;8.00;99.90;;;;;;4899484;29;20222;-78
2024/02/12 06:19:37;;;;;;;2.20;0.80;;;7.90;99.90;;;;;;4898964;29;20596;-78
2024/02/12 06:22:06;;;;;;;3.80;1.27;;;8.00;99.90;;;;;;4899328;29;20696;-78
2024/02/12 06:24:33;;;;;;;2.80;1.03;;;8.10;99.90;;;;;;4899227;29;20252;-78
2024/02/12 06:27:00;;;;;;;3.23;0.80;;;8.10;99.90;;;;;;4899145;29;20570;-79
2024/02/12 06:29:26;;;;;;;3.37;0.93;;;8.10;99.90;;;;;;4898921;29;20245;-79
2024/02/12 06:31:53;;;;;;;3.07;0.90;;;8.10;99.90;;;;;;4897563;29;20295;-79
2024/02/12 06:34:21;;;;;;;3.47;1.40;;;8.00;99.90;;;;;;4897293;29;20697;-78
2024/02/12 06:36:48;;;;;;;5.33;0.80;;;7.90;99.90;;;;;;4897206;29;20297;-78
2024/02/12 06:39:16;;;;;;;2.20;0.90;;;7.90;99.90;;;;;;4898977;29;20325;-78
2024/02/12 06:41:44;;;;;;;6.63;1.00;;;7.80;99.90;;;;;;4898551;29;20211;-79
2024/02/12 06:44:13;;;;;;;4.50;1.00;;;7.70;99.90;;;;;;4898987;29;20321;-78
2024/02/12 06:46:43;;;;;;;6.00;1.30;;;7.70;99.90;;;;;;4898819;29;20210;-78
2024/02/12 06:49:10;;;;;;;8.70;1.77;;;7.60;99.90;;;;;;4898725;29;20246;-79
2024/02/12 06:51:40;;;;;;;3.63;1.03;;;7.60;99.90;;;;;;4898953;29;20240;-78
2024/02/12 06:54:07;;;;;;;3.60;0.87;;;7.50;99.90;;;;;;4898858;29;20316;-78
2024/02/12 06:56:41;;;;;;;2.67;1.03;;;7.50;99.90;;;;;;4898788;29;20217;-77
2024/02/12 06:59:08;;;;;;;5.47;1.60;;;7.50;99.90;;;;;;4898729;29;20260;-79
2024/02/12 07:01:36;;;;;;;3.50;1.30;;;7.50;99.90;;;;;;4898650;29;20220;-78
2024/02/12 07:04:03;;;;;;;2.23;1.10;;;7.60;99.90;;;;;;4898086;29;20233;-79
2024/02/12 07:06:31;;;;;;;5.90;1.47;;;7.60;99.90;;;;;;4898598;29;20221;-78
2024/02/12 07:08:58;;;;;;;2.40;0.97;;;7.70;99.90;;;;;;4898476;29;20245;-79
2024/02/12 07:11:25;;;;;;;10.23;1.20;;;7.70;99.90;;;;;;4898512;29;20669;-78
2024/02/12 07:13:54;;;;;;;3.20;1.23;;;7.70;99.90;;;;;;4898400;29;20234;-78
2024/02/12 07:16:23;;;;;;;5.37;1.17;;;7.80;99.90;;;;;;4898494;29;20222;-78
2024/02/12 07:18:50;;;;;;;3.27;1.20;;;7.70;99.90;;;;;;4898078;29;20245;-78
2024/02/12 07:21:16;;;;;;;4.80;1.10;;;7.70;99.90;;;;;;4898560;29;20214;-78
2024/02/12 07:23:43;;;;;;;7.97;1.87;;;7.70;99.90;;;;;;4898165;29;20234;-79
2024/02/12 07:26:10;;;;;;;10.53;2.57;;;7.80;99.90;;;;;;4897996;29;20210;-78
2024/02/12 07:28:37;;;;;;;3.37;1.10;;;7.80;99.90;;;;;;4898374;29;20214;-78
2024/02/12 07:31:07;;;;;;;9.23;1.57;;;7.80;99.90;;;;;;4898311;29;20221;-79
2024/02/12 07:33:35;;;;;;;4.70;1.40;;;7.80;99.90;;;;;;4897969;29;20313;-78
2024/02/12 07:36:04;;;;;;;4.20;1.07;;;7.80;99.90;;;;;;4898253;29;20305;-78
2024/02/12 07:38:31;;;;;;;2.80;1.00;;;7.80;99.90;;;;;;4898165;29;20302;-78
2024/02/12 07:40:58;;;;;;;2.50;0.70;;;7.80;99.90;;;;;;4898372;29;20250;-78
2024/02/12 07:43:28;;;;;;;3.60;0.87;;;7.70;99.90;;;;;;4897547;29;20226;-78
2024/02/12 07:45:55;;;;;;;7.00;1.77;;;7.70;99.90;;;;;;4898231;29;20214;-78
2024/02/12 07:48:24;;;;;;;4.43;1.17;;;7.70;99.90;;;;;;4897894;29;20246;-78
2024/02/12 07:50:52;;;;;;;1.73;0.70;;;7.80;99.90;;;;;;4897876;29;20218;-78
2024/02/12 07:53:24;;;;;;;7.43;1.60;;;7.70;99.90;;;;;;4897900;29;20230;-78
2024/02/12 07:55:51;;;;;;;1.20;0.70;;;7.60;99.90;;;;;;4897669;29;20297;-78
2024/02/12 07:58:19;;;;;;;1.47;0.83;;;7.70;99.90;;;;;;4898192;29;20269;-79
2024/02/12 08:00:48;;;;;;;3.77;1.33;;;7.80;99.90;;;;;;4897999;29;20249;-79
2024/02/12 08:03:17;;;;;;;2.70;1.10;;;7.80;99.90;;;;;;4897944;29;20689;-78
2024/02/12 08:05:46;;;;;;;4.37;0.83;;;7.80;99.90;;;;;;4897943;29;20551;-78
2024/02/12 08:08:13;;;;;;;1.33;0.97;;;7.80;99.90;;;;;;4897766;29;20308;-79
2024/02/12 08:10:40;;;;;;;8.03;0.90;;;7.80;99.90;;;;;;4897882;29;20347;-78
2024/02/12 08:13:07;;;;;;;8.37;1.30;;;7.90;99.90;;;;;;4897834;29;20620;-79
2024/02/12 08:15:34;;;;;;;2.07;0.90;;;8.10;99.90;;;;;;4897817;29;20301;-78
2024/02/12 08:18:03;;;;;;;3.03;1.10;;;8.00;99.90;;;;;;4897737;29;20673;-78
2024/02/12 08:20:30;;;;;;;7.17;1.03;;;8.10;99.90;;;;;;4897339;29;20213;-77
2024/02/12 08:22:58;;;;;;;4.17;1.00;;;8.10;99.90;;;;;;4897421;29;20784;-78
2024/02/12 08:25:27;;;;;;;1.03;0.77;;;8.20;99.90;;;;;;4897842;29;20206;-79
2024/02/12 08:27:55;;;;;;;5.17;1.00;;;8.20;99.90;;;;;;4897936;29;20266;-79
2024/02/12 08:30:22;;;;;;;7.57;1.90;;;8.10;99.90;;;;;;4897779;29;20297;-78
2024/02/12 08:32:49;;;;;;;8.57;1.03;;;8.20;99.90;;;;;;4897343;29;20233;-79
2024/02/12 08:35:16;;;;;;;4.73;1.20;;;8.30;99.90;;;;;;4897801;29;20217;-78
2024/02/12 08:37:42;;;;;;;6.07;1.13;;;8.50;99.90;;;;;;4897777;29;20218;-78
2024/02/12 08:40:12;;;;;;;5.33;0.83;;;8.70;99.90;;;;;;4897645;29;20705;-79
2024/02/12 08:42:41;;;;;;;5.07;1.50;;;8.90;99.90;;;;;;4897588;29;20231;-79
2024/02/12 08:45:11;;;;;;;3.30;0.83;;;9.10;99.90;;;;;;4897658;29;20207;-78
2024/02/12 08:47:39;;;;;;;5.87;0.80;;;9.10;99.90;;;;;;4897229;29;20688;-79
2024/02/12 08:50:07;;;;;;;2.27;1.20;;;9.40;99.90;;;;;;4897454;29;20294;-78
2024/02/12 08:52:34;;;;;;;4.20;0.67;;;9.50;99.90;;;;;;4897750;29;20234;-78
2024/02/12 08:55:06;;;;;;;2.87;0.70;;;9.70;99.90;;;;;;4899480;29;20216;-78
2024/02/12 08:57:35;;;;;;;4.13;0.83;;;9.90;99.90;;;;;;4900887;29;20253;-79
2024/02/12 09:00:04;;;;;;;2.67;0.70;;;10.00;99.90;;;;;;4900841;29;20238;-79
2024/02/12 09:02:31;;;;;;;2.40;0.83;;;10.10;99.90;;;;;;4900769;29;20652;-78
2024/02/12 09:04:57;;;;;;;2.10;0.50;;;9.80;99.90;;;;;;4900794;29;20561;-79
2024/02/12 09:07:26;;;;;;;2.17;0.53;;;9.80;99.90;;;;;;4900566;29;20206;-79
2024/02/12 09:09:53;;;;;;;2.77;0.60;;;9.80;99.90;;;;;;4900789;29;20214;-79
2024/02/12 09:12:20;;;;;;;1.83;0.60;;;9.90;99.90;;;;;;4900787;29;20218;-78
2024/02/12 09:14:48;;;;;;;2.43;0.60;;;9.80;99.90;;;;;;4900547;29;20214;-78
2024/02/12 09:17:16;;;;;;;1.93;0.87;;;9.80;99.90;;;;;;4904105;29;20269;-77
2024/02/12 09:19:44;;;;;;;6.67;0.87;;;9.80;99.90;;;;;;4900537;29;20250;-78
2024/02/12 09:22:11;;;;;;;4.13;0.80;;;9.70;99.90;;;;;;4900520;29;20225;-78
2024/02/12 09:24:40;;;;;;;5.03;0.87;;;9.60;99.90;;;;;;4900764;29;20301;-79
2024/02/12 09:27:07;;;;;;;1.40;0.60;;;9.80;99.90;;;;;;4900229;29;20260;-78
2024/02/12 09:29:35;;;;;;;2.27;0.70;;;9.80;99.90;;;;;;4900253;29;20668;-78
2024/02/12 09:32:04;;;;;;;2.00;1.10;;;9.90;99.90;;;;;;4900269;29;20207;-78
2024/02/12 09:34:32;;;;;;;4.63;0.70;;;9.80;99.90;;;;;;4900226;29;20325;-78
2024/02/12 09:36:59;;;;;;;6.13;0.87;;;9.70;99.90;;;;;;4900553;29;20218;-79
2024/02/12 09:39:26;;;;;;;4.43;1.10;;;9.80;99.90;;;;;;4900347;29;20270;-77
2024/02/12 09:41:55;;;;;;;1.43;0.80;;;9.80;99.90;;;;;;4900241;29;20221;-78
2024/02/12 09:44:25;;;;;;;2.83;0.67;;;9.80;99.90;;;;;;4900055;29;20783;-78
2024/02/12 09:46:57;;;;;;;3.50;1.00;;;9.60;99.90;;;;;;4900337;29;20994;-78
2024/02/12 09:49:26;;;;;;;4.57;0.80;;;9.90;99.90;;;;;;4900087;29;20215;-78
2024/02/12 09:51:56;;;;;;;8.53;1.30;;;9.90;99.90;;;;;;4899919;29;20222;-78
2024/02/12 09:54:23;;;;;;;2.17;0.90;;;9.60;99.90;;;;;;4899768;29;20697;-77
2024/02/12 09:56:50;;;;;;;2.37;1.00;;;9.60;99.90;;;;;;4899688;29;20297;-78
2024/02/12 09:59:17;;;;;;;1.77;0.67;;;9.70;99.90;;;;;;4899692;29;20313;-78
2024/02/12 10:01:44;;;;;;;4.83;1.17;;;9.70;99.90;;;;;;4899970;29;20543;-78
2024/02/12 10:04:11;;;;;;;5.57;1.10;;;9.60;99.90;;;;;;4899986;29;20236;-79
2024/02/12 10:06:40;;;;;;;3.90;0.80;;;9.70;99.90;;;;;;4898918;29;20249;-78
2024/02/12 10:09:08;;;;;;;4.50;1.40;;;9.70;99.90;;;;;;4899689;29;20221;-78
2024/02/12 10:11:35;;;;;;;3.00;0.97;;;9.60;99.90;;;;;;4899720;29;20290;-78
2024/02/12 10:14:04;;;;;;;2.83;1.17;;;9.80;99.90;;;;;;4893933;29;20238;-79
2024/02/12 10:16:31;;;;;;;5.23;1.00;;;10.00;99.90;;;;;;4899415;29;20242;-78
2024/02/12 10:18:59;;;;;;;7.23;1.20;;;9.90;99.90;;;;;;4899009;29;20238;-78
2024/02/12 10:21:26;;;;;;;3.77;1.27;;;9.90;99.90;;;;;;4899328;29;20213;-79
2024/02/12 10:23:54;;;;;;;2.10;0.93;;;10.00;99.90;;;;;;4893402;29;20729;-77
2024/02/12 10:26:25;;;;;;;4.87;0.80;;;10.00;99.90;;;;;;4896715;29;20218;-79
2024/02/12 10:28:55;;;;;;;7.93;1.27;;;10.00;99.90;;;;;;4894023;29;20242;-83
2024/02/12 10:31:23;;;;;;;2.33;0.77;;;10.20;99.90;;;;;;4896914;29;20217;-76
2024/02/12 10:33:51;;;;;;;4.13;1.20;;;10.30;99.90;;;;;;4897138;29;20234;-75
2024/02/12 10:36:19;;;;;;;3.37;1.13;;;10.40;99.90;;;;;;4897389;29;20309;-78
2024/02/12 10:38:48;;;;;;;1.60;0.70;;;10.40;99.90;;;;;;4896669;29;20207;-79
2024/02/12 10:41:25;;;;;;;3.50;0.90;;;10.50;99.90;;;;;;4898874;29;20206;-77
2024/02/12 10:43:53;;;;;;;1.70;0.90;;;10.40;99.90;;;;;;4898265;29;20579;-81
2024/02/12 10:46:20;;;;;;;2.93;0.80;;;10.60;99.90;;;;;;4898809;29;20305;-80
2024/02/12 10:48:49;;;;;;;2.23;0.97;;;10.80;99.90;;;;;;4898400;29;20206;-80
2024/02/12 10:51:19;;;;;;;3.77;0.57;;;10.80;99.90;;;;;;4898818;29;20218;-81
2024/02/12 10:53:46;;;;;;;2.17;0.97;;;10.80;99.90;;;;;;4898742;29;20233;-83
2024/02/12 10:56:14;;;;;;;3.00;1.00;;;10.70;99.90;;;;;;4898347;29;20225;-84
2024/02/12 10:58:44;;;;;;;5.00;1.10;;;10.70;99.90;;;;;;4897996;29;20210;-81
2024/02/12 11:01:13;;;;;;;2.20;0.93;;;10.70;99.90;;;;;;4897633;29;20627;-80
2024/02/12 11:03:44;;;;;;;3.13;1.03;;;10.90;99.90;;;;;;4897565;29;20301;-80
2024/02/12 11:06:12;;;;;;;4.17;1.07;;;10.90;99.90;;;;;;4898035;29;20214;-77
2024/02/12 11:08:40;;;;;;;2.67;1.00;;;10.90;99.90;;;;;;4898063;29;20220;-80
2024/02/12 11:11:14;;;;;;;1.87;1.03;;;10.70;99.90;;;;;;4879491;29;20215;-78
2024/02/12 11:13:43;;;;;;;5.17;1.87;;;10.50;99.90;;;;;;4895160;29;20234;-79
2024/02/12 11:16:15;;;;;;;2.90;1.20;;;10.50;99.90;;;;;;4898413;29;20229;-78
2024/02/12 11:18:42;;;;;;;2.10;1.00;;;10.60;99.90;;;;;;4898110;29;20301;-78
2024/02/12 11:21:11;;;;;;;2.90;1.00;;;10.50;99.90;;;;;;4898259;29;20645;-81
2024/02/12 11:23:40;;;;;;;2.37;1.00;;;10.40;99.90;;;;;;4898099;29;20597;-77
2024/02/12 11:26:07;;;;;;;2.23;0.87;;;10.50;99.90;;;;;;4898245;29;20217;-80
2024/02/12 11:28:36;;;;;;;3.43;1.07;;;10.30;99.90;;;;;;4897877;29;20325;-78
2024/02/12 11:31:05;;;;;;;2.07;0.93;;;10.30;99.90;;;;;;4898041;29;20230;-79
2024/02/12 11:33:32;;;;;;;1.17;0.83;;;10.40;99.90;;;;;;4897747;29;20285;-78
2024/02/12 11:36:07;;;;;;;4.83;1.57;;;10.40;99.90;;;;;;4898066;29;20313;-80
2024/02/12 11:38:35;;;;;;;1.70;0.90;;;10.40;99.90;;;;;;4898496;29;20209;-78
2024/02/12 11:41:04;;;;;;;1.53;0.80;;;10.40;99.90;;;;;;4898034;29;20685;-79
2024/02/12 11:43:33;;;;;;;4.20;0.83;;;10.30;99.90;;;;;;4898396;29;20226;-80
2024/02/12 11:46:00;;;;;;;2.80;0.90;;;10.30;99.90;;;;;;4899174;29;20221;-81
2024/02/12 11:48:29;;;;;;;1.87;0.77;;;10.30;99.90;;;;;;4898942;29;20206;-82
2024/02/12 11:50:56;;;;;;;4.60;1.00;;;10.30;99.90;;;;;;4897804;29;20228;-82
2024/02/12 11:53:23;;;;;;;1.77;1.03;;;10.20;99.90;;;;;;4897363;29;20233;-79
2024/02/12 11:55:50;;;;;;;4.30;1.40;;;10.30;99.90;;;;;;4898032;29;20293;-78
2024/02/12 11:58:17;;;;;;;4.70;0.70;;;10.50;99.90;;;;;;4898431;29;20224;-79
2024/02/12 12:00:45;;;;;;;3.37;1.10;;;10.60;99.90;;;;;;4896429;29;20248;-78
2024/02/12 12:03:12;;;;;;;3.23;0.90;;;10.60;99.90;;;;;;4896242;29;20265;-80
2024/02/12 12:05:43;;;;;;;4.70;1.00;;;10.70;99.90;;;;;;4896967;29;20289;-79
2024/02/12 12:08:11;;;;;;;1.63;1.10;;;10.70;99.90;;;;;;4896242;29;20210;-78
2024/02/12 12:10:37;;;;;;;5.73;0.90;;;10.80;99.90;;;;;;4897537;29;20214;-79
2024/02/12 12:13:04;;;;;;;1.63;0.80;;;10.70;99.90;;;;;;4897002;29;20226;-80
2024/02/12 12:15:31;;;;;;;4.70;1.10;;;10.60;99.90;;;;;;4897159;29;20217;-79
2024/02/12 12:17:59;;;;;;;3.13;0.80;;;10.60;99.90;;;;;;4897004;29;20215;-82
2024/02/12 12:20:29;;;;;;;1.23;0.77;;;10.50;99.90;;;;;;4896991;29;20234;-82
2024/02/12 12:22:57;;;;;;;1.50;0.60;;;10.70;99.90;;;;;;4897412;29;20555;-82
2024/02/12 12:25:24;;;;;;;1.53;0.70;;;10.90;99.90;;;;;;4897596;29;20206;-84
2024/02/12 12:27:52;;;;;;;1.63;0.60;;;11.10;99.90;;;;;;4897223;29;20309;-83
2024/02/12 12:30:19;;;;;;;2.17;0.60;;;11.30;99.90;;;;;;4900592;29;20237;-83
2024/02/12 12:32:48;;;;;;;1.67;0.70;;;11.30;99.90;;;;;;4901518;29;20321;-83
2024/02/12 12:35:15;;;;;;;1.50;0.70;;;11.50;99.90;;;;;;4901528;29;20218;-82
2024/02/12 12:37:42;;;;;;;3.17;1.00;;;11.60;99.90;;;;;;4901646;29;20309;-84
2024/02/12 12:40:18;;;;;;;3.13;0.70;;;11.60;99.90;;;;;;4901423;29;20330;-81
2024/02/12 12:42:46;;;;;;;2.90;1.57;;;11.80;99.90;;;;;;4901448;29;20316;-84
2024/02/12 12:45:15;;;;;;;1.83;0.70;;;11.60;99.90;;;;;;4901252;29;20206;-84
2024/02/12 12:47:42;;;;;;;7.90;0.70;;;11.60;99.90;;;;;;4901100;29;20210;-84
2024/02/12 12:50:10;;;;;;;1.83;0.50;;;11.70;99.90;;;;;;4901787;29;20207;-82
2024/02/12 12:52:38;;;;;;;1.20;0.40;;;11.90;99.90;;;;;;4901335;29;20329;-85
2024/02/12 12:55:07;;;;;;;4.03;0.77;;;12.10;99.90;;;;;;4901358;29;20258;-83
2024/02/12 12:57:35;;;;;;;2.20;0.40;;;12.30;99.90;;;;;;4901060;29;20253;-84
2024/02/12 13:00:04;;;;;;;1.73;0.47;;;12.30;99.90;;;;;;4901160;29;20701;-84
2024/02/12 13:02:32;;;;;;;0.87;0.40;;;12.10;99.90;;;;;;4901166;29;20309;-83
2024/02/12 13:05:00;;;;;;;1.23;0.50;;;11.80;99.90;;;;;;4901376;29;20221;-84
2024/02/12 13:07:27;;;;;;;3.00;0.60;;;11.50;99.90;;;;;;4901264;29;20213;-84
2024/02/12 13:09:54;;;;;;;0.43;0.33;;;11.50;99.90;;;;;;4901173;29;20225;-83
2024/02/12 13:12:21;;;;;;;1.87;0.40;;;11.50;99.90;;;;;;4900903;29;20242;-83